sensor_id;sensor_type;location;lat;lon;timestamp;P1;durP1;ratioP1;P2;durP2;ratioP2
12721;SDS011;6425;50.316;8.114;2022-08-25T00:01:44;2.80;;;1.40;;
12721;SDS011;6425;50.316;8.114;2022-08-25T00:06:47;4.00;;;1.80;;
12721;SDS011;6425;50.316;8.114;2022-08-25T00:11:50;2.53;;;1.23;;
12721;SDS011;6425;50.316;8.114;2022-08-25T00:16:50;4.87;;;1.80;;
12721;SDS011;6425;50.316;8.114;2022-08-25T00:21:51;2.37;;;1.70;;
12721;SDS011;6425;50.316;8.114;2022-08-25T00:26:54;3.30;;;1.77;;
12721;SDS011;6425;50.316;8.114;2022-08-25T00:31:56;3.50;;;1.67;;
12721;SDS011;6425;50.316;8.114;2022-08-25T00:36:58;2.83;;;2.20;;
12721;SDS011;6425;50.316;8.114;2022-08-25T00:42:00;2.30;;;2.10;;
12721;SDS011;6425;50.316;8.114;2022-08-25T00:47:01;4.13;;;2.00;;
12721;SDS011;6425;50.316;8.114;2022-08-25T00:52:04;4.07;;;2.03;;
12721;SDS011;6425;50.316;8.114;2022-08-25T00:57:08;4.20;;;1.87;;
12721;SDS011;6425;50.316;8.114;2022-08-25T01:02:11;3.07;;;1.70;;
12721;SDS011;6425;50.316;8.114;2022-08-25T01:07:13;8.57;;;2.50;;
12721;SDS011;6425;50.316;8.114;2022-08-25T01:12:16;2.27;;;2.00;;
12721;SDS011;6425;50.316;8.114;2022-08-25T01:17:17;2.07;;;1.90;;
12721;SDS011;6425;50.316;8.114;2022-08-25T01:22:19;3.03;;;1.93;;
12721;SDS011;6425;50.316;8.114;2022-08-25T01:27:20;10.03;;;2.10;;
12721;SDS011;6425;50.316;8.114;2022-08-25T01:32:20;5.87;;;2.10;;
12721;SDS011;6425;50.316;8.114;2022-08-25T01:37:22;5.47;;;2.40;;
12721;SDS011;6425;50.316;8.114;2022-08-25T01:42:27;6.50;;;2.00;;
12721;SDS011;6425;50.316;8.114;2022-08-25T01:47:36;6.70;;;2.47;;
12721;SDS011;6425;50.316;8.114;2022-08-25T01:52:44;2.87;;;2.47;;
12721;SDS011;6425;50.316;8.114;2022-08-25T01:57:48;8.13;;;2.03;;
12721;SDS011;6425;50.316;8.114;2022-08-25T02:02:49;4.57;;;2.43;;
12721;SDS011;6425;50.316;8.114;2022-08-25T02:07:51;3.70;;;2.40;;
12721;SDS011;6425;50.316;8.114;2022-08-25T02:12:51;2.80;;;2.53;;
12721;SDS011;6425;50.316;8.114;2022-08-25T02:17:52;4.70;;;2.70;;
12721;SDS011;6425;50.316;8.114;2022-08-25T02:22:54;5.10;;;3.27;;
12721;SDS011;6425;50.316;8.114;2022-08-25T02:27:55;4.97;;;2.70;;
12721;SDS011;6425;50.316;8.114;2022-08-25T02:32:55;8.77;;;2.60;;
12721;SDS011;6425;50.316;8.114;2022-08-25T02:37:57;3.13;;;2.93;;
12721;SDS011;6425;50.316;8.114;2022-08-25T02:42:58;5.77;;;3.13;;
12721;SDS011;6425;50.316;8.114;2022-08-25T02:47:58;4.57;;;2.40;;
12721;SDS011;6425;50.316;8.114;2022-08-25T02:53:00;2.63;;;2.30;;
12721;SDS011;6425;50.316;8.114;2022-08-25T02:58:01;7.00;;;2.77;;
12721;SDS011;6425;50.316;8.114;2022-08-25T03:03:02;3.80;;;2.50;;
12721;SDS011;6425;50.316;8.114;2022-08-25T03:08:05;8.53;;;3.27;;
12721;SDS011;6425;50.316;8.114;2022-08-25T03:13:06;4.90;;;3.10;;
12721;SDS011;6425;50.316;8.114;2022-08-25T03:18:06;6.17;;;3.27;;
12721;SDS011;6425;50.316;8.114;2022-08-25T03:23:08;12.27;;;3.17;;
12721;SDS011;6425;50.316;8.114;2022-08-25T03:28:09;9.43;;;3.30;;
12721;SDS011;6425;50.316;8.114;2022-08-25T03:33:09;3.47;;;3.17;;
12721;SDS011;6425;50.316;8.114;2022-08-25T03:38:11;5.90;;;3.07;;
12721;SDS011;6425;50.316;8.114;2022-08-25T03:43:11;4.57;;;3.33;;
12721;SDS011;6425;50.316;8.114;2022-08-25T03:48:12;4.60;;;3.03;;
12721;SDS011;6425;50.316;8.114;2022-08-25T03:53:15;4.10;;;3.10;;
12721;SDS011;6425;50.316;8.114;2022-08-25T03:58:15;4.30;;;3.13;;
12721;SDS011;6425;50.316;8.114;2022-08-25T04:03:16;3.97;;;3.27;;
12721;SDS011;6425;50.316;8.114;2022-08-25T04:08:18;4.70;;;3.63;;
12721;SDS011;6425;50.316;8.114;2022-08-25T04:13:19;5.73;;;3.23;;
12721;SDS011;6425;50.316;8.114;2022-08-25T04:18:19;9.70;;;3.30;;
12721;SDS011;6425;50.316;8.114;2022-08-25T04:23:21;4.80;;;3.57;;
12721;SDS011;6425;50.316;8.114;2022-08-25T04:28:22;6.60;;;4.50;;
12721;SDS011;6425;50.316;8.114;2022-08-25T04:33:22;7.77;;;4.37;;
12721;SDS011;6425;50.316;8.114;2022-08-25T04:38:24;11.30;;;3.87;;
12721;SDS011;6425;50.316;8.114;2022-08-25T04:43:25;21.17;;;5.80;;
12721;SDS011;6425;50.316;8.114;2022-08-25T04:48:26;12.97;;;4.30;;
12721;SDS011;6425;50.316;8.114;2022-08-25T04:53:28;7.30;;;3.87;;
12721;SDS011;6425;50.316;8.114;2022-08-25T04:58:28;6.87;;;3.50;;
12721;SDS011;6425;50.316;8.114;2022-08-25T05:03:28;9.93;;;3.77;;
12721;SDS011;6425;50.316;8.114;2022-08-25T05:08:31;13.47;;;4.10;;
12721;SDS011;6425;50.316;8.114;2022-08-25T05:13:32;9.00;;;3.90;;
12721;SDS011;6425;50.316;8.114;2022-08-25T05:18:33;14.80;;;4.17;;
12721;SDS011;6425;50.316;8.114;2022-08-25T05:23:36;8.50;;;3.63;;
12721;SDS011;6425;50.316;8.114;2022-08-25T05:28:37;9.53;;;3.97;;
12721;SDS011;6425;50.316;8.114;2022-08-25T05:33:38;11.10;;;5.23;;
12721;SDS011;6425;50.316;8.114;2022-08-25T05:38:41;11.03;;;4.23;;
12721;SDS011;6425;50.316;8.114;2022-08-25T05:43:42;16.27;;;4.60;;
12721;SDS011;6425;50.316;8.114;2022-08-25T05:48:44;15.33;;;3.70;;
12721;SDS011;6425;50.316;8.114;2022-08-25T05:53:47;12.27;;;3.50;;
12721;SDS011;6425;50.316;8.114;2022-08-25T05:58:49;15.57;;;3.13;;
12721;SDS011;6425;50.316;8.114;2022-08-25T06:03:50;12.23;;;3.63;;
12721;SDS011;6425;50.316;8.114;2022-08-25T06:08:52;11.80;;;3.17;;
12721;SDS011;6425;50.316;8.114;2022-08-25T06:13:52;6.07;;;3.57;;
12721;SDS011;6425;50.316;8.114;2022-08-25T06:18:53;6.10;;;3.30;;
12721;SDS011;6425;50.316;8.114;2022-08-25T06:23:54;7.90;;;3.03;;
12721;SDS011;6425;50.316;8.114;2022-08-25T06:28:55;7.20;;;3.03;;
12721;SDS011;6425;50.316;8.114;2022-08-25T06:33:59;9.53;;;3.37;;
12721;SDS011;6425;50.316;8.114;2022-08-25T06:39:00;5.57;;;3.00;;
12721;SDS011;6425;50.316;8.114;2022-08-25T06:44:01;4.47;;;3.40;;
12721;SDS011;6425;50.316;8.114;2022-08-25T06:49:03;10.23;;;3.33;;
12721;SDS011;6425;50.316;8.114;2022-08-25T06:54:05;5.93;;;3.27;;
12721;SDS011;6425;50.316;8.114;2022-08-25T06:59:08;6.33;;;3.37;;
12721;SDS011;6425;50.316;8.114;2022-08-25T07:04:09;6.73;;;3.70;;
12721;SDS011;6425;50.316;8.114;2022-08-25T07:09:11;7.20;;;3.90;;
12721;SDS011;6425;50.316;8.114;2022-08-25T07:14:14;7.40;;;3.40;;
12721;SDS011;6425;50.316;8.114;2022-08-25T07:19:16;4.53;;;3.80;;
12721;SDS011;6425;50.316;8.114;2022-08-25T07:24:18;4.20;;;3.80;;
12721;SDS011;6425;50.316;8.114;2022-08-25T07:29:20;7.47;;;4.80;;
12721;SDS011;6425;50.316;8.114;2022-08-25T07:34:22;9.60;;;5.10;;
12721;SDS011;6425;50.316;8.114;2022-08-25T07:39:25;12.00;;;5.10;;
12721;SDS011;6425;50.316;8.114;2022-08-25T07:44:26;9.13;;;5.70;;
12721;SDS011;6425;50.316;8.114;2022-08-25T07:49:26;8.53;;;5.60;;
12721;SDS011;6425;50.316;8.114;2022-08-25T07:54:28;10.37;;;6.60;;
12721;SDS011;6425;50.316;8.114;2022-08-25T07:59:29;11.47;;;6.30;;
12721;SDS011;6425;50.316;8.114;2022-08-25T08:04:30;8.07;;;5.73;;
12721;SDS011;6425;50.316;8.114;2022-08-25T08:09:31;11.13;;;6.47;;
12721;SDS011;6425;50.316;8.114;2022-08-25T08:14:32;10.53;;;6.33;;
12721;SDS011;6425;50.316;8.114;2022-08-25T08:19:32;7.77;;;5.70;;
12721;SDS011;6425;50.316;8.114;2022-08-25T08:24:35;6.93;;;6.23;;
12721;SDS011;6425;50.316;8.114;2022-08-25T08:29:36;12.90;;;6.60;;
12721;SDS011;6425;50.316;8.114;2022-08-25T08:34:38;7.20;;;5.87;;
12721;SDS011;6425;50.316;8.114;2022-08-25T08:39:41;6.60;;;5.47;;
12721;SDS011;6425;50.316;8.114;2022-08-25T08:44:44;8.80;;;5.43;;
12721;SDS011;6425;50.316;8.114;2022-08-25T08:50:04;8.17;;;5.33;;
12721;SDS011;6425;50.316;8.114;2022-08-25T08:55:12;6.30;;;5.70;;
12721;SDS011;6425;50.316;8.114;2022-08-25T09:00:19;7.30;;;5.90;;
12721;SDS011;6425;50.316;8.114;2022-08-25T09:05:21;9.37;;;5.93;;
12721;SDS011;6425;50.316;8.114;2022-08-25T09:10:27;9.13;;;6.03;;
12721;SDS011;6425;50.316;8.114;2022-08-25T09:15:39;9.50;;;6.17;;
12721;SDS011;6425;50.316;8.114;2022-08-25T09:20:49;8.40;;;6.73;;
12721;SDS011;6425;50.316;8.114;2022-08-25T09:26:02;8.47;;;6.20;;
12721;SDS011;6425;50.316;8.114;2022-08-25T09:31:18;7.20;;;5.93;;
12721;SDS011;6425;50.316;8.114;2022-08-25T09:36:21;6.63;;;5.33;;
12721;SDS011;6425;50.316;8.114;2022-08-25T09:41:39;6.73;;;5.57;;
12721;SDS011;6425;50.316;8.114;2022-08-25T09:46:45;8.83;;;8.03;;
12721;SDS011;6425;50.316;8.114;2022-08-25T09:51:54;8.20;;;7.50;;
12721;SDS011;6425;50.316;8.114;2022-08-25T09:56:56;7.33;;;6.67;;
12721;SDS011;6425;50.316;8.114;2022-08-25T10:01:59;6.90;;;6.10;;
12721;SDS011;6425;50.316;8.114;2022-08-25T10:07:03;7.40;;;6.20;;
12721;SDS011;6425;50.316;8.114;2022-08-25T10:12:15;7.20;;;6.30;;
12721;SDS011;6425;50.316;8.114;2022-08-25T10:17:21;6.30;;;5.80;;
12721;SDS011;6425;50.316;8.114;2022-08-25T10:22:24;5.83;;;5.33;;
12721;SDS011;6425;50.316;8.114;2022-08-25T10:27:29;6.67;;;6.07;;
12721;SDS011;6425;50.316;8.114;2022-08-25T10:32:41;8.13;;;5.90;;
12721;SDS011;6425;50.316;8.114;2022-08-25T10:38:03;7.93;;;6.30;;
12721;SDS011;6425;50.316;8.114;2022-08-25T10:43:16;7.07;;;6.20;;
12721;SDS011;6425;50.316;8.114;2022-08-25T10:48:31;6.83;;;5.90;;
12721;SDS011;6425;50.316;8.114;2022-08-25T10:53:45;7.33;;;5.73;;
12721;SDS011;6425;50.316;8.114;2022-08-25T10:59:05;7.43;;;6.60;;
12721;SDS011;6425;50.316;8.114;2022-08-25T11:04:14;6.93;;;5.80;;
12721;SDS011;6425;50.316;8.114;2022-08-25T11:09:21;6.80;;;5.00;;
12721;SDS011;6425;50.316;8.114;2022-08-25T11:14:27;6.97;;;5.50;;
12721;SDS011;6425;50.316;8.114;2022-08-25T11:19:32;6.30;;;5.70;;
12721;SDS011;6425;50.316;8.114;2022-08-25T11:24:41;5.50;;;5.00;;
12721;SDS011;6425;50.316;8.114;2022-08-25T11:29:52;5.27;;;4.77;;
12721;SDS011;6425;50.316;8.114;2022-08-25T11:34:59;7.70;;;7.10;;
12721;SDS011;6425;50.316;8.114;2022-08-25T11:40:10;6.03;;;5.43;;
12721;SDS011;6425;50.316;8.114;2022-08-25T11:45:25;7.43;;;5.00;;
12721;SDS011;6425;50.316;8.114;2022-08-25T11:50:53;9.40;;;5.73;;
12721;SDS011;6425;50.316;8.114;2022-08-25T11:55:57;6.97;;;6.33;;
12721;SDS011;6425;50.316;8.114;2022-08-25T12:01:01;6.23;;;5.63;;
12721;SDS011;6425;50.316;8.114;2022-08-25T12:06:14;6.83;;;6.23;;
12721;SDS011;6425;50.316;8.114;2022-08-25T12:16:58;7.53;;;6.00;;
12721;SDS011;6425;50.316;8.114;2022-08-25T12:27:42;7.07;;;6.40;;
12721;SDS011;6425;50.316;8.114;2022-08-25T12:32:57;8.83;;;6.53;;
12721;SDS011;6425;50.316;8.114;2022-08-25T12:38:07;7.50;;;6.93;;
12721;SDS011;6425;50.316;8.114;2022-08-25T12:43:12;8.87;;;6.00;;
12721;SDS011;6425;50.316;8.114;2022-08-25T12:48:53;7.40;;;6.90;;
12721;SDS011;6425;50.316;8.114;2022-08-25T12:53:57;8.03;;;7.43;;
12721;SDS011;6425;50.316;8.114;2022-08-25T12:59:12;7.53;;;6.33;;
12721;SDS011;6425;50.316;8.114;2022-08-25T13:10:02;6.57;;;5.87;;
12721;SDS011;6425;50.316;8.114;2022-08-25T13:15:15;9.80;;;6.77;;
12721;SDS011;6425;50.316;8.114;2022-08-25T13:20:27;7.20;;;6.60;;
12721;SDS011;6425;50.316;8.114;2022-08-25T13:25:27;8.13;;;7.33;;
12721;SDS011;6425;50.316;8.114;2022-08-25T13:36:00;7.10;;;6.20;;
12721;SDS011;6425;50.316;8.114;2022-08-25T13:41:06;6.50;;;6.00;;
12721;SDS011;6425;50.316;8.114;2022-08-25T13:46:17;7.17;;;6.50;;
12721;SDS011;6425;50.316;8.114;2022-08-25T13:51:50;7.67;;;7.00;;
12721;SDS011;6425;50.316;8.114;2022-08-25T13:56:54;7.63;;;6.73;;
12721;SDS011;6425;50.316;8.114;2022-08-25T14:02:12;6.93;;;6.37;;
12721;SDS011;6425;50.316;8.114;2022-08-25T14:07:32;6.80;;;5.80;;
12721;SDS011;6425;50.316;8.114;2022-08-25T14:12:45;7.33;;;6.73;;
12721;SDS011;6425;50.316;8.114;2022-08-25T14:17:58;8.47;;;7.07;;
12721;SDS011;6425;50.316;8.114;2022-08-25T14:23:10;8.83;;;6.30;;
12721;SDS011;6425;50.316;8.114;2022-08-25T14:28:39;9.17;;;5.87;;
12721;SDS011;6425;50.316;8.114;2022-08-25T14:33:49;7.43;;;6.80;;
12721;SDS011;6425;50.316;8.114;2022-08-25T14:38:56;7.53;;;6.77;;
12721;SDS011;6425;50.316;8.114;2022-08-25T14:44:01;8.17;;;6.57;;
12721;SDS011;6425;50.316;8.114;2022-08-25T14:49:32;7.05;;;6.15;;
12721;SDS011;6425;50.316;8.114;2022-08-25T14:54:36;8.13;;;6.13;;
12721;SDS011;6425;50.316;8.114;2022-08-25T14:59:37;6.35;;;5.85;;
12721;SDS011;6425;50.316;8.114;2022-08-25T15:04:41;6.55;;;5.95;;
12721;SDS011;6425;50.316;8.114;2022-08-25T15:09:43;6.28;;;5.68;;
12721;SDS011;6425;50.316;8.114;2022-08-25T15:14:43;6.53;;;6.03;;
12721;SDS011;6425;50.316;8.114;2022-08-25T15:19:44;7.37;;;6.77;;
12721;SDS011;6425;50.316;8.114;2022-08-25T15:24:46;10.20;;;5.97;;
12721;SDS011;6425;50.316;8.114;2022-08-25T15:29:46;6.90;;;6.40;;
12721;SDS011;6425;50.316;8.114;2022-08-25T15:34:47;7.00;;;6.40;;
12721;SDS011;6425;50.316;8.114;2022-08-25T15:39:49;9.30;;;6.30;;
12721;SDS011;6425;50.316;8.114;2022-08-25T15:44:49;7.13;;;6.43;;
12721;SDS011;6425;50.316;8.114;2022-08-25T15:49:50;7.27;;;6.50;;
12721;SDS011;6425;50.316;8.114;2022-08-25T15:55:03;6.25;;;5.75;;
12721;SDS011;6425;50.316;8.114;2022-08-25T16:00:06;8.03;;;6.53;;
12721;SDS011;6425;50.316;8.114;2022-08-25T16:05:08;6.63;;;6.13;;
12721;SDS011;6425;50.316;8.114;2022-08-25T16:10:10;7.07;;;5.53;;
12721;SDS011;6425;50.316;8.114;2022-08-25T16:15:11;8.93;;;5.27;;
12721;SDS011;6425;50.316;8.114;2022-08-25T16:20:11;7.97;;;5.50;;
12721;SDS011;6425;50.316;8.114;2022-08-25T16:25:16;6.07;;;5.50;;
12721;SDS011;6425;50.316;8.114;2022-08-25T16:30:17;6.23;;;5.70;;
12721;SDS011;6425;50.316;8.114;2022-08-25T16:35:18;7.80;;;5.90;;
12721;SDS011;6425;50.316;8.114;2022-08-25T16:40:20;6.30;;;5.40;;
12721;SDS011;6425;50.316;8.114;2022-08-25T16:45:21;5.77;;;5.27;;
12721;SDS011;6425;50.316;8.114;2022-08-25T16:50:21;5.97;;;5.37;;
12721;SDS011;6425;50.316;8.114;2022-08-25T16:55:23;4.80;;;4.00;;
12721;SDS011;6425;50.316;8.114;2022-08-25T17:00:25;7.87;;;4.37;;
12721;SDS011;6425;50.316;8.114;2022-08-25T17:05:27;6.27;;;4.80;;
12721;SDS011;6425;50.316;8.114;2022-08-25T17:10:29;6.77;;;4.73;;
12721;SDS011;6425;50.316;8.114;2022-08-25T17:15:37;5.10;;;4.60;;
12721;SDS011;6425;50.316;8.114;2022-08-25T17:20:39;9.17;;;4.57;;
12721;SDS011;6425;50.316;8.114;2022-08-25T17:25:41;5.90;;;5.33;;
12721;SDS011;6425;50.316;8.114;2022-08-25T17:30:41;9.23;;;4.27;;
12721;SDS011;6425;50.316;8.114;2022-08-25T17:35:43;9.87;;;5.17;;
12721;SDS011;6425;50.316;8.114;2022-08-25T17:40:46;5.63;;;4.47;;
12721;SDS011;6425;50.316;8.114;2022-08-25T17:45:47;5.67;;;4.57;;
12721;SDS011;6425;50.316;8.114;2022-08-25T17:50:48;5.50;;;4.37;;
12721;SDS011;6425;50.316;8.114;2022-08-25T17:55:56;7.63;;;4.30;;
12721;SDS011;6425;50.316;8.114;2022-08-25T18:00:58;11.30;;;4.87;;
12721;SDS011;6425;50.316;8.114;2022-08-25T18:05:59;10.73;;;4.93;;
12721;SDS011;6425;50.316;8.114;2022-08-25T18:11:01;13.03;;;5.27;;
12721;SDS011;6425;50.316;8.114;2022-08-25T18:16:03;19.53;;;5.47;;
12721;SDS011;6425;50.316;8.114;2022-08-25T18:21:04;18.30;;;6.13;;
12721;SDS011;6425;50.316;8.114;2022-08-25T18:26:11;15.90;;;5.03;;
12721;SDS011;6425;50.316;8.114;2022-08-25T18:31:12;11.87;;;5.77;;
12721;SDS011;6425;50.316;8.114;2022-08-25T18:36:12;8.70;;;5.20;;
12721;SDS011;6425;50.316;8.114;2022-08-25T18:41:14;9.23;;;4.83;;
12721;SDS011;6425;50.316;8.114;2022-08-25T18:46:15;7.17;;;5.13;;
12721;SDS011;6425;50.316;8.114;2022-08-25T18:51:15;6.40;;;4.70;;
12721;SDS011;6425;50.316;8.114;2022-08-25T18:56:17;9.03;;;5.03;;
12721;SDS011;6425;50.316;8.114;2022-08-25T19:01:18;6.10;;;4.60;;
12721;SDS011;6425;50.316;8.114;2022-08-25T19:06:19;11.13;;;4.70;;
12721;SDS011;6425;50.316;8.114;2022-08-25T19:11:20;5.93;;;4.90;;
12721;SDS011;6425;50.316;8.114;2022-08-25T19:16:29;5.43;;;4.93;;
12721;SDS011;6425;50.316;8.114;2022-08-25T19:21:32;7.53;;;4.83;;
12721;SDS011;6425;50.316;8.114;2022-08-25T19:26:34;5.30;;;4.37;;
12721;SDS011;6425;50.316;8.114;2022-08-25T19:31:35;8.90;;;5.33;;
12721;SDS011;6425;50.316;8.114;2022-08-25T19:36:37;7.17;;;5.10;;
12721;SDS011;6425;50.316;8.114;2022-08-25T19:41:39;7.97;;;4.80;;
12721;SDS011;6425;50.316;8.114;2022-08-25T19:46:41;10.30;;;5.03;;
12721;SDS011;6425;50.316;8.114;2022-08-25T19:51:45;8.07;;;4.97;;
12721;SDS011;6425;50.316;8.114;2022-08-25T19:56:49;5.33;;;4.60;;
12721;SDS011;6425;50.316;8.114;2022-08-25T20:01:49;6.93;;;5.40;;
12721;SDS011;6425;50.316;8.114;2022-08-25T20:06:50;8.53;;;5.30;;
12721;SDS011;6425;50.316;8.114;2022-08-25T20:11:52;13.13;;;5.07;;
12721;SDS011;6425;50.316;8.114;2022-08-25T20:16:53;6.07;;;5.47;;
12721;SDS011;6425;50.316;8.114;2022-08-25T20:21:53;8.13;;;5.23;;
12721;SDS011;6425;50.316;8.114;2022-08-25T20:26:55;5.93;;;5.33;;
12721;SDS011;6425;50.316;8.114;2022-08-25T20:31:56;7.70;;;5.97;;
12721;SDS011;6425;50.316;8.114;2022-08-25T20:36:56;7.40;;;5.17;;
12721;SDS011;6425;50.316;8.114;2022-08-25T20:41:58;7.40;;;5.10;;
12721;SDS011;6425;50.316;8.114;2022-08-25T20:46:59;8.57;;;4.90;;
12721;SDS011;6425;50.316;8.114;2022-08-25T20:52:01;7.87;;;5.00;;
12721;SDS011;6425;50.316;8.114;2022-08-25T20:57:04;5.67;;;4.93;;
12721;SDS011;6425;50.316;8.114;2022-08-25T21:02:05;8.77;;;5.57;;
12721;SDS011;6425;50.316;8.114;2022-08-25T21:07:06;7.90;;;5.43;;
12721;SDS011;6425;50.316;8.114;2022-08-25T21:12:08;7.93;;;5.73;;
12721;SDS011;6425;50.316;8.114;2022-08-25T21:17:09;6.57;;;5.33;;
12721;SDS011;6425;50.316;8.114;2022-08-25T21:22:10;7.37;;;5.30;;
12721;SDS011;6425;50.316;8.114;2022-08-25T21:27:12;9.47;;;5.90;;
12721;SDS011;6425;50.316;8.114;2022-08-25T21:32:12;9.43;;;5.33;;
12721;SDS011;6425;50.316;8.114;2022-08-25T21:37:13;9.53;;;6.20;;
12721;SDS011;6425;50.316;8.114;2022-08-25T21:42:15;5.37;;;4.97;;
12721;SDS011;6425;50.316;8.114;2022-08-25T21:47:15;7.80;;;5.53;;
12721;SDS011;6425;50.316;8.114;2022-08-25T21:52:16;7.63;;;5.70;;
12721;SDS011;6425;50.316;8.114;2022-08-25T21:57:18;6.97;;;5.50;;
12721;SDS011;6425;50.316;8.114;2022-08-25T22:02:19;9.50;;;5.60;;
12721;SDS011;6425;50.316;8.114;2022-08-25T22:07:20;8.13;;;5.10;;
12721;SDS011;6425;50.316;8.114;2022-08-25T22:12:22;6.33;;;5.17;;
12721;SDS011;6425;50.316;8.114;2022-08-25T22:17:23;7.23;;;5.47;;
12721;SDS011;6425;50.316;8.114;2022-08-25T22:22:23;8.47;;;5.37;;
12721;SDS011;6425;50.316;8.114;2022-08-25T22:27:25;6.20;;;5.43;;
12721;SDS011;6425;50.316;8.114;2022-08-25T22:32:26;6.03;;;5.27;;
12721;SDS011;6425;50.316;8.114;2022-08-25T22:37:26;5.70;;;5.10;;
12721;SDS011;6425;50.316;8.114;2022-08-25T22:42:28;9.90;;;6.07;;
12721;SDS011;6425;50.316;8.114;2022-08-25T22:47:29;7.13;;;5.80;;
12721;SDS011;6425;50.316;8.114;2022-08-25T22:52:30;6.90;;;5.60;;
12721;SDS011;6425;50.316;8.114;2022-08-25T22:57:33;8.30;;;6.07;;
12721;SDS011;6425;50.316;8.114;2022-08-25T23:02:33;9.67;;;6.10;;
12721;SDS011;6425;50.316;8.114;2022-08-25T23:07:34;8.03;;;5.70;;
12721;SDS011;6425;50.316;8.114;2022-08-25T23:12:37;8.23;;;5.77;;
12721;SDS011;6425;50.316;8.114;2022-08-25T23:17:38;10.63;;;5.83;;
12721;SDS011;6425;50.316;8.114;2022-08-25T23:22:39;6.27;;;5.67;;
12721;SDS011;6425;50.316;8.114;2022-08-25T23:27:40;7.07;;;5.80;;
12721;SDS011;6425;50.316;8.114;2022-08-25T23:32:41;7.90;;;6.40;;
12721;SDS011;6425;50.316;8.114;2022-08-25T23:37:41;8.50;;;5.97;;
12721;SDS011;6425;50.316;8.114;2022-08-25T23:42:43;7.57;;;6.07;;
12721;SDS011;6425;50.316;8.114;2022-08-25T23:47:44;7.03;;;6.10;;
12721;SDS011;6425;50.316;8.114;2022-08-25T23:52:44;7.23;;;6.50;;
12721;SDS011;6425;50.316;8.114;2022-08-25T23:57:46;9.10;;;6.53;;
